Time;durP1;ratioP1;P1;durP2;ratioP2;P2;SDS_P1;SDS_P2;PMS_P1;PMS_P2;Temp;Humidity;BMP_temperature;BMP_pressure;BME280_temperature;BME280_humidity;BME280_pressure;Samples;Min_cycle;Max_cycle;Signal;HPM_P1;HPM_P2
2024/01/17 00:00:59;;;;;;;15.43;8.43;;;;;;;-5.06;74.99;99155.72;3159884;22;20276;-76
2024/01/17 00:02:12;;;;;;;12.73;8.50;;;;;;;-5.05;74.90;99131.13;3160163;22;20023;-76
2024/01/17 00:03:26;;;;;;;11.40;7.43;;;;;;;-5.06;74.67;99131.94;3159154;22;20333;-76
2024/01/17 00:04:44;;;;;;;14.13;11.07;;;;;;;-5.07;74.81;99131.06;3159653;22;20027;-76
2024/01/17 00:05:59;;;;;;;16.70;9.80;;;;;;;-5.07;74.95;99135.31;3159291;22;20262;-76
2024/01/17 00:07:12;;;;;;;15.43;8.87;;;;;;;-5.07;74.87;99130.22;3159130;22;20250;-77
2024/01/17 00:08:28;;;;;;;15.13;9.23;;;;;;;-5.08;74.63;99129.38;3159838;22;20266;-76
2024/01/17 00:09:41;;;;;;;12.10;8.07;;;;;;;-5.06;74.67;99137.03;3159512;22;20258;-76
2024/01/17 00:10:57;;;;;;;16.83;9.50;;;;;;;-5.05;75.02;99134.53;3159514;22;20257;-76
2024/01/17 00:12:10;;;;;;;15.53;10.90;;;;;;;-5.03;75.06;99137.13;3160064;22;20035;-76
2024/01/17 00:13:25;;;;;;;11.40;7.73;;;;;;;-5.03;75.00;99129.50;3159921;22;20331;-76
2024/01/17 00:14:38;;;;;;;10.40;7.90;;;;;;;-5.03;74.61;99134.59;3159180;22;20016;-76
2024/01/17 00:15:53;;;;;;;13.43;9.63;;;;;;;-5.02;74.74;99138.00;3159120;22;21032;-75
2024/01/17 00:17:06;;;;;;;19.57;9.87;;;;;;;-5.06;74.86;99131.94;3165073;22;20035;-75
2024/01/17 00:18:21;;;;;;;10.87;9.60;;;;;;;-5.06;74.86;99126.84;3159773;22;20850;-75
2024/01/17 00:19:35;;;;;;;12.50;9.00;;;;;;;-5.08;74.76;99128.50;3159929;22;20020;-75
2024/01/17 00:20:49;;;;;;;10.50;9.43;;;;;;;-5.09;74.69;99119.13;3160289;22;20262;-75
2024/01/17 00:22:03;;;;;;;13.00;8.13;;;;;;;-5.09;75.02;99125.06;3159188;22;20438;-75
2024/01/17 00:23:18;;;;;;;12.60;7.87;;;;;;;-5.10;74.68;99119.97;3159004;22;20288;-74
2024/01/17 00:24:31;;;;;;;13.07;8.47;;;;;;;-5.12;74.60;99111.41;3159536;22;20258;-75
2024/01/17 00:25:45;;;;;;;12.97;8.73;;;;;;;-5.13;74.74;99110.56;3158444;22;20277;-74
2024/01/17 00:27:00;;;;;;;14.57;9.60;;;;;;;-5.13;74.85;99118.19;3158766;22;20018;-74
2024/01/17 00:28:15;;;;;;;10.33;7.60;;;;;;;-5.13;75.16;99120.75;3159041;22;20775;-74
2024/01/17 00:29:28;;;;;;;12.03;10.07;;;;;;;-5.13;74.82;99123.28;3159353;22;20254;-74
2024/01/17 00:30:42;;;;;;;15.70;12.07;;;;;;;-5.13;75.23;99123.28;3158595;22;20331;-74
2024/01/17 00:31:56;;;;;;;11.23;9.00;;;;;;;-5.11;74.80;99120.75;3158726;22;20042;-74
2024/01/17 00:33:10;;;;;;;13.27;9.17;;;;;;;-5.10;74.77;99114.88;3159342;22;20266;-74
2024/01/17 00:34:24;;;;;;;11.37;10.13;;;;;;;-5.09;75.12;99121.69;3158848;22;20024;-74
2024/01/17 00:35:39;;;;;;;13.40;10.27;;;;;;;-5.08;74.76;99121.72;3157761;22;20394;-74
2024/01/17 00:36:52;;;;;;;11.87;9.43;;;;;;;-5.08;74.90;99120.88;3157868;22;20148;-74
2024/01/17 00:38:07;;;;;;;15.87;10.00;;;;;;;-5.08;75.20;99116.66;3163741;22;20259;-74
2024/01/17 00:39:22;;;;;;;15.20;8.40;;;;;;;-5.06;74.85;99116.69;3157140;22;20030;-74
2024/01/17 00:40:37;;;;;;;16.63;8.50;;;;;;;-5.06;75.26;99116.69;3157711;22;20337;-75
2024/01/17 00:41:50;;;;;;;18.87;8.87;;;;;;;-5.07;74.90;99105.66;3158060;22;20726;-74
2024/01/17 00:43:07;;;;;;;13.40;8.93;;;;;;;-5.06;75.21;99102.31;3157739;22;20325;-74
2024/01/17 00:44:21;;;;;;;13.80;10.77;;;;;;;-5.03;74.97;99106.63;3157998;22;20023;-74
2024/01/17 00:45:35;;;;;;;17.67;9.10;;;;;;;-4.99;75.14;99102.47;3158749;22;20298;-74
2024/01/17 00:46:49;;;;;;;13.20;9.07;;;;;;;-4.97;75.03;99101.69;3157495;22;20258;-74
2024/01/17 00:48:04;;;;;;;15.03;8.80;;;;;;;-4.93;75.29;99097.53;3158479;22;20268;-74
2024/01/17 00:49:17;;;;;;;19.90;10.23;;;;;;;-4.90;75.19;99098.50;3158367;22;20099;-74
2024/01/17 00:50:31;;;;;;;10.30;8.30;;;;;;;-4.88;75.07;99103.63;3156573;22;20262;-74
2024/01/17 00:51:45;;;;;;;16.87;8.87;;;;;;;-4.89;74.96;99092.59;3157334;22;20042;-74
2024/01/17 00:52:59;;;;;;;18.53;9.73;;;;;;;-4.88;75.13;99091.78;3158764;22;20267;-74
2024/01/17 00:54:13;;;;;;;15.93;9.23;;;;;;;-4.86;75.14;99094.34;3158028;22;20023;-74
2024/01/17 00:55:27;;;;;;;11.53;7.37;;;;;;;-4.83;75.40;99095.31;3157112;22;20257;-74
2024/01/17 00:56:41;;;;;;;18.83;11.00;;;;;;;-4.82;74.91;99097.03;3157050;22;20038;-74
2024/01/17 00:57:55;;;;;;;10.90;7.33;;;;;;;-4.83;75.03;99094.44;3157714;22;20345;-74
2024/01/17 00:59:10;;;;;;;16.80;9.27;;;;;;;-4.86;75.11;99099.44;3157227;22;20031;-74
2024/01/17 01:00:24;;;;;;;20.47;9.53;;;;;;;-4.87;74.90;99092.63;3157578;22;20348;-74
2024/01/17 01:01:38;;;;;;;16.30;10.10;;;;;;;-4.90;75.29;99088.31;3156938;22;20265;-74
2024/01/17 01:02:52;;;;;;;12.93;8.53;;;;;;;-4.89;75.19;99084.09;3158086;22;20284;-74
2024/01/17 01:04:08;;;;;;;13.63;8.50;;;;;;;-4.88;75.55;99076.50;3160841;22;20024;-74
2024/01/17 01:05:22;;;;;;;12.77;9.03;;;;;;;-4.85;75.30;99075.75;3158701;22;20597;-74
2024/01/17 01:06:36;;;;;;;13.37;9.23;;;;;;;-4.83;75.21;99072.41;3158064;22;20261;-74
2024/01/17 01:07:51;;;;;;;12.07;9.80;;;;;;;-4.79;75.50;99069.94;3159016;22;20377;-74
2024/01/17 01:09:04;;;;;;;15.37;9.73;;;;;;;-4.77;75.27;99071.72;3158908;22;20047;-74
2024/01/17 01:10:18;;;;;;;14.50;10.00;;;;;;;-4.74;75.30;99068.38;3158634;22;20262;-74
2024/01/17 01:11:32;;;;;;;16.70;8.77;;;;;;;-4.70;75.41;99067.63;3158004;22;20027;-74
2024/01/17 01:12:47;;;;;;;10.47;8.83;;;;;;;-4.68;75.30;99068.53;3158382;22;20316;-74
2024/01/17 01:14:01;;;;;;;16.43;8.17;;;;;;;-4.65;75.35;99060.97;3158573;22;20311;-74
2024/01/17 01:15:16;;;;;;;13.93;9.40;;;;;;;-4.63;75.33;99059.34;3157592;22;20620;-74
2024/01/17 01:16:30;;;;;;;14.00;8.47;;;;;;;-4.60;75.30;99057.72;3158316;22;20023;-74
2024/01/17 01:17:44;;;;;;;10.23;7.83;;;;;;;-4.56;74.98;99062.94;3158268;22;20266;-74
2024/01/17 01:18:58;;;;;;;14.17;9.33;;;;;;;-4.54;75.05;99054.50;3157547;22;20347;-74
2024/01/17 01:20:13;;;;;;;14.40;8.07;;;;;;;-4.53;75.49;99046.03;3158855;22;20270;-74
2024/01/17 01:21:26;;;;;;;14.27;9.13;;;;;;;-4.53;75.19;99047.72;3158678;22;20024;-74
2024/01/17 01:22:40;;;;;;;12.13;8.77;;;;;;;-4.52;75.08;99045.19;3158282;22;20364;-74
2024/01/17 01:23:54;;;;;;;11.30;8.43;;;;;;;-4.51;75.37;99043.53;3163330;22;20019;-74
2024/01/17 01:25:09;;;;;;;17.63;11.33;;;;;;;-4.50;75.22;99041.00;3158391;22;20268;-74
2024/01/17 01:26:22;;;;;;;12.07;8.57;;;;;;;-4.48;75.41;99039.38;3157813;22;20031;-74
2024/01/17 01:27:36;;;;;;;13.67;9.20;;;;;;;-4.45;75.03;99036.91;3158110;22;20250;-74
2024/01/17 01:28:50;;;;;;;20.40;8.93;;;;;;;-4.41;75.32;99035.31;3158816;22;20027;-74
2024/01/17 01:30:05;;;;;;;16.03;10.03;;;;;;;-4.36;75.15;99027.75;3158603;22;20270;-74
2024/01/17 01:31:20;;;;;;;12.83;8.57;;;;;;;-4.34;75.23;99024.44;3158007;22;20016;-74
2024/01/17 01:32:35;;;;;;;12.27;8.47;;;;;;;-4.30;74.91;99033.03;3158539;22;20318;-75
2024/01/17 01:33:48;;;;;;;12.07;9.20;;;;;;;-4.27;75.01;99025.47;3158887;22;20254;-74
2024/01/17 01:35:03;;;;;;;11.77;8.73;;;;;;;-4.27;74.92;99021.22;3158726;22;20250;-74
2024/01/17 01:36:16;;;;;;;12.53;8.30;;;;;;;-4.27;75.01;99020.34;3158470;22;20019;-74
2024/01/17 01:37:31;;;;;;;17.13;9.83;;;;;;;-4.25;75.13;99019.56;3158964;22;20824;-74
2024/01/17 01:38:44;;;;;;;13.30;8.67;;;;;;;-4.23;75.20;99023.03;3159980;22;20024;-74
2024/01/17 01:39:58;;;;;;;13.63;8.97;;;;;;;-4.21;75.22;99013.75;3160790;22;20349;-74
2024/01/17 01:41:12;;;;;;;11.43;8.80;;;;;;;-4.18;74.80;99018.06;3160490;22;20023;-74
2024/01/17 01:42:26;;;;;;;17.17;10.07;;;;;;;-4.15;75.19;99024.91;3160584;22;20264;-74
2024/01/17 01:43:40;;;;;;;16.97;8.63;;;;;;;-4.14;75.09;99008.78;3159964;22;20086;-74
2024/01/17 01:44:54;;;;;;;13.73;8.27;;;;;;;-4.11;74.62;99011.41;3160835;22;20266;-74
2024/01/17 01:46:13;;;;;;;15.63;9.63;;;;;;;-4.09;74.83;99015.69;3160592;22;20019;-74
2024/01/17 01:47:29;;;;;;;11.00;9.63;;;;;;;-4.09;75.01;99018.25;3159582;22;20257;-74
2024/01/17 01:48:43;;;;;;;12.87;9.50;;;;;;;-4.10;74.89;99013.13;3160661;22;20269;-74
2024/01/17 01:49:58;;;;;;;11.27;8.33;;;;;;;-4.10;74.73;99016.53;3160330;22;20254;-74
2024/01/17 01:51:12;;;;;;;12.53;8.57;;;;;;;-4.09;75.11;99013.16;3159770;22;20027;-74
2024/01/17 01:52:27;;;;;;;14.20;9.53;;;;;;;-4.08;75.08;99006.38;3159700;22;20262;-74
2024/01/17 01:53:42;;;;;;;13.80;8.53;;;;;;;-4.04;75.08;99003.94;3160528;22;20019;-74
2024/01/17 01:54:56;;;;;;;12.20;8.47;;;;;;;-4.04;74.96;98997.97;3159410;22;20251;-74
2024/01/17 01:56:11;;;;;;;14.03;8.57;;;;;;;-4.03;75.03;98995.44;3160553;22;20262;-74
2024/01/17 01:57:26;;;;;;;12.93;9.20;;;;;;;-4.03;74.92;98997.16;3160933;22;20282;-74
2024/01/17 01:58:43;;;;;;;12.10;8.87;;;;;;;-4.01;75.06;99000.59;3159995;22;20717;-74
2024/01/17 01:59:57;;;;;;;14.47;9.20;;;;;;;-3.99;74.99;98993.84;3160533;22;20341;-74
2024/01/17 02:01:11;;;;;;;16.03;8.63;;;;;;;-3.99;74.97;98997.25;3160511;22;20261;-74
2024/01/17 02:02:26;;;;;;;13.47;9.30;;;;;;;-3.99;74.79;98999.81;3160498;22;20266;-74
2024/01/17 02:03:42;;;;;;;12.27;9.43;;;;;;;-3.98;75.00;98993.00;3159745;22;20015;-74
2024/01/17 02:04:57;;;;;;;15.83;9.53;;;;;;;-3.98;74.98;98991.31;3160405;22;20262;-74
2024/01/17 02:06:12;;;;;;;12.77;9.63;;;;;;;-3.97;74.76;98995.59;3159869;22;20261;-74
2024/01/17 02:07:28;;;;;;;17.07;9.43;;;;;;;-3.95;74.88;98996.50;3161094;22;20250;-74
2024/01/17 02:08:42;;;;;;;11.93;7.93;;;;;;;-3.95;75.14;98988.88;3163106;22;20262;-74
2024/01/17 02:09:56;;;;;;;10.53;9.03;;;;;;;-3.91;74.88;98989.78;3160818;22;20357;-74
2024/01/17 02:11:10;;;;;;;14.97;9.50;;;;;;;-3.87;74.84;98990.69;3160292;22;20458;-74
2024/01/17 02:12:24;;;;;;;16.20;9.90;;;;;;;-3.84;74.83;98991.66;3160157;22;20276;-74
2024/01/17 02:13:38;;;;;;;17.80;10.83;;;;;;;-3.82;74.71;98990.00;3160416;22;20020;-74
2024/01/17 02:14:53;;;;;;;15.83;9.97;;;;;;;-3.78;75.10;98990.91;3160410;22;20345;-74
2024/01/17 02:16:06;;;;;;;13.53;9.80;;;;;;;-3.75;74.79;98985.88;3160175;22;20030;-74
2024/01/17 02:17:21;;;;;;;15.10;9.87;;;;;;;-3.72;74.96;98978.28;3160582;22;20336;-74
2024/01/17 02:18:34;;;;;;;14.23;9.67;;;;;;;-3.68;75.00;98980.09;3160746;22;20016;-74
2024/01/17 02:19:50;;;;;;;19.97;10.50;;;;;;;-3.66;75.15;98981.00;3176090;22;20384;-74
2024/01/17 02:21:04;;;;;;;23.27;13.27;;;;;;;-3.62;74.90;98969.16;3176307;22;20438;-74
2024/01/17 02:22:18;;;;;;;17.53;11.40;;;;;;;-3.60;75.12;98976.00;3176786;22;20261;-74
2024/01/17 02:23:32;;;;;;;18.63;11.00;;;;;;;-3.56;74.94;98967.59;3175462;22;20030;-74
2024/01/17 02:24:48;;;;;;;13.20;11.40;;;;;;;-3.53;74.84;98965.13;3176266;22;20329;-74
2024/01/17 02:26:01;;;;;;;21.17;12.60;;;;;;;-3.51;74.72;98960.06;3175868;22;20019;-74
2024/01/17 02:27:15;;;;;;;25.57;13.10;;;;;;;-3.52;75.07;98966.81;3175203;22;20329;-74
2024/01/17 02:28:30;;;;;;;18.43;12.57;;;;;;;-3.47;74.93;98963.53;3175957;22;20015;-74
2024/01/17 02:29:46;;;;;;;20.67;15.27;;;;;;;-3.46;75.04;98962.69;3176067;22;20261;-74
2024/01/17 02:30:59;;;;;;;17.23;12.27;;;;;;;-3.42;75.04;98959.38;3175056;22;20245;-74
2024/01/17 02:32:14;;;;;;;17.27;12.60;;;;;;;-3.40;74.59;98950.94;3176114;22;20261;-74
2024/01/17 02:33:27;;;;;;;15.50;12.23;;;;;;;-3.36;74.80;98955.25;3176118;22;20030;-74
2024/01/17 02:34:42;;;;;;;18.30;11.93;;;;;;;-3.33;74.68;98949.34;3175362;22;20380;-74
2024/01/17 02:35:55;;;;;;;24.40;13.20;;;;;;;-3.30;74.52;98945.16;3175827;22;20019;-73
2024/01/17 02:37:10;;;;;;;23.73;16.73;;;;;;;-3.28;74.57;98942.63;3175586;22;20788;-74
2024/01/17 02:38:24;;;;;;;19.07;12.70;;;;;;;-3.24;74.86;98953.78;3176032;22;20023;-74
2024/01/17 02:39:38;;;;;;;19.83;14.53;;;;;;;-3.26;74.67;98946.06;3175184;22;20329;-74
2024/01/17 02:40:53;;;;;;;19.40;14.57;;;;;;;-3.26;74.67;98940.97;3175558;22;20030;-74
2024/01/17 02:42:07;;;;;;;26.63;14.10;;;;;;;-3.24;74.58;98941.88;3176247;22;20286;-74
2024/01/17 02:43:21;;;;;;;19.83;13.13;;;;;;;-3.20;74.92;98940.22;3175722;22;20254;-75
2024/01/17 02:44:35;;;;;;;21.47;12.13;;;;;;;-3.17;74.59;98935.22;3176052;22;20336;-74
2024/01/17 02:45:49;;;;;;;17.43;10.37;;;;;;;-3.15;74.89;98934.41;3175841;22;20050;-74
2024/01/17 02:47:03;;;;;;;14.63;9.43;;;;;;;-3.15;74.55;98923.31;3175542;22;20325;-74
2024/01/17 02:48:17;;;;;;;19.80;12.40;;;;;;;-3.15;74.28;98931.84;3175701;22;20034;-74
2024/01/17 02:49:31;;;;;;;14.90;8.47;;;;;;;-3.14;74.41;98933.56;3175685;22;20261;-74
2024/01/17 02:50:44;;;;;;;26.43;9.10;;;;;;;-3.13;74.26;98934.41;3175637;22;20454;-74
2024/01/17 02:51:59;;;;;;;14.93;10.43;;;;;;;-3.14;74.28;98925.91;3176440;22;20341;-74
2024/01/17 02:53:12;;;;;;;15.73;10.88;;;;;;;-3.12;74.46;98925.94;3179031;22;20023;-74
2024/01/17 02:54:27;;;;;;;14.37;10.40;;;;;;;-3.13;74.50;98922.50;3185561;22;20292;-74
2024/01/17 02:55:40;;;;;;;17.90;12.30;;;;;;;-3.14;74.37;98920.81;3182033;22;20019;-74
2024/01/17 02:56:56;;;;;;;23.70;12.97;;;;;;;-3.16;73.95;98916.50;3177677;22;20645;-74
2024/01/17 02:58:10;;;;;;;16.83;11.37;;;;;;;-3.19;74.33;98907.09;3176208;22;20019;-74
2024/01/17 02:59:24;;;;;;;16.87;12.43;;;;;;;-3.22;73.73;98916.41;3175476;22;20261;-75
2024/01/17 03:00:42;;;;;;;20.20;12.63;;;;;;;-3.30;73.86;98909.47;3176689;22;20304;-74
2024/01/17 03:01:58;;;;;;;20.23;12.30;;;;;;;-3.37;73.55;98910.16;3174096;22;20265;-74
2024/01/17 03:03:11;;;;;;;18.93;12.90;;;;;;;-3.40;73.76;98907.56;3179502;22;20288;-75
2024/01/17 03:04:26;;;;;;;16.87;11.83;;;;;;;-3.42;73.90;98905.81;3181021;22;20732;-75
2024/01/17 03:05:39;;;;;;;14.67;11.47;;;;;;;-3.43;73.75;98904.97;3178407;22;20019;-75
2024/01/17 03:06:54;;;;;;;15.67;11.07;;;;;;;-3.43;73.92;98910.06;3176235;22;20696;-75
2024/01/17 03:08:07;;;;;;;16.43;10.60;;;;;;;-3.45;73.75;98904.06;3177184;22;20023;-74
2024/01/17 03:09:21;;;;;;;16.30;10.63;;;;;;;-3.46;73.77;98912.53;3176371;22;20645;-75
2024/01/17 03:10:35;;;;;;;14.57;11.70;;;;;;;-3.46;73.95;98916.78;3176131;22;20042;-74
2024/01/17 03:11:49;;;;;;;17.30;12.47;;;;;;;-3.46;73.81;98906.56;3176605;22;20569;-74
2024/01/17 03:13:04;;;;;;;23.47;12.47;;;;;;;-3.46;74.03;98901.47;3176597;22;20435;-75
2024/01/17 03:14:19;;;;;;;20.57;12.50;;;;;;;-3.46;74.25;98901.47;3175866;22;20267;-75
2024/01/17 03:15:32;;;;;;;18.47;11.90;;;;;;;-3.44;74.57;98900.66;3175485;22;20250;-75
2024/01/17 03:16:47;;;;;;;16.37;10.73;;;;;;;-3.42;74.40;98895.63;3175486;22;20262;-75
2024/01/17 03:18:00;;;;;;;18.07;12.03;;;;;;;-3.41;74.32;98894.78;3175802;22;20023;-75
2024/01/17 03:19:15;;;;;;;17.20;11.27;;;;;;;-3.41;74.14;98892.22;3175337;22;20274;-75
2024/01/17 03:20:28;;;;;;;18.60;11.13;;;;;;;-3.40;74.49;98891.41;3176011;22;20023;-75
2024/01/17 03:21:46;;;;;;;17.90;11.83;;;;;;;-3.38;74.38;98889.72;3175691;22;20261;-75
2024/01/17 03:22:59;;;;;;;15.67;10.83;;;;;;;-3.37;74.63;98884.66;3175288;22;20219;-75
2024/01/17 03:24:13;;;;;;;16.47;12.07;;;;;;;-3.38;74.58;98882.97;3175266;22;20268;-75
2024/01/17 03:25:27;;;;;;;14.33;10.23;;;;;;;-3.38;74.95;98884.63;3176110;22;20023;-75
2024/01/17 03:26:41;;;;;;;16.47;9.60;;;;;;;-3.36;74.71;98882.97;3175222;22;20268;-74
2024/01/17 03:27:55;;;;;;;13.67;10.77;;;;;;;-3.36;75.20;98877.88;3176270;22;20034;-75
2024/01/17 03:29:10;;;;;;;18.33;11.10;;;;;;;-3.37;75.28;98879.56;3173610;22;20266;-75
2024/01/17 03:30:24;;;;;;;17.80;12.10;;;;;;;-3.34;74.79;98874.50;3176034;22;20023;-75
2024/01/17 03:31:38;;;;;;;15.17;8.90;;;;;;;-3.32;75.21;98874.56;3175080;22;20256;-75
2024/01/17 03:32:52;;;;;;;19.47;11.17;;;;;;;-3.30;75.38;98867.78;3175801;22;20019;-75
2024/01/17 03:34:06;;;;;;;14.13;11.33;;;;;;;-3.28;75.16;98868.66;3175791;22;21002;-75
2024/01/17 03:35:20;;;;;;;14.27;9.57;;;;;;;-3.26;75.48;98871.25;3174916;22;20069;-75
2024/01/17 03:36:34;;;;;;;14.97;9.20;;;;;;;-3.23;75.14;98867.03;3175072;22;20323;-75
2024/01/17 03:37:48;;;;;;;16.60;10.90;;;;;;;-3.21;75.35;98862.84;3175731;22;20444;-75
2024/01/17 03:39:02;;;;;;;15.03;11.40;;;;;;;-3.19;75.41;98858.63;3174785;22;20246;-75
2024/01/17 03:40:15;;;;;;;15.67;9.53;;;;;;;-3.16;75.37;98850.16;3175228;22;20361;-75
2024/01/17 03:41:30;;;;;;;17.63;10.47;;;;;;;-3.15;75.45;98854.41;3175437;22;20266;-75
2024/01/17 03:42:43;;;;;;;11.90;9.80;;;;;;;-3.14;75.27;98849.34;3175252;22;20023;-75
2024/01/17 03:43:58;;;;;;;14.07;9.33;;;;;;;-3.11;75.16;98846.00;3175534;22;20289;-75
2024/01/17 03:45:13;;;;;;;13.77;10.23;;;;;;;-3.10;75.59;98843.50;3175114;22;20023;-75
2024/01/17 03:46:28;;;;;;;17.90;10.70;;;;;;;-3.09;75.05;98832.44;3175252;22;20265;-75
2024/01/17 03:47:41;;;;;;;15.20;10.03;;;;;;;-3.05;75.36;98832.47;3174539;22;20249;-74
2024/01/17 03:48:55;;;;;;;15.73;10.63;;;;;;;-3.04;75.51;98831.66;3175127;22;20276;-74
2024/01/17 03:50:09;;;;;;;13.97;10.30;;;;;;;-3.02;75.50;98828.31;3175471;22;20023;-75
2024/01/17 03:51:23;;;;;;;18.57;11.70;;;;;;;-3.02;75.35;98817.22;3174209;22;20256;-75
2024/01/17 03:52:37;;;;;;;15.90;9.97;;;;;;;-3.01;75.15;98818.94;3175605;22;20027;-74
2024/01/17 03:53:51;;;;;;;13.65;10.48;;;;;;;-3.01;75.54;98813.84;3175497;22;20750;-75
2024/01/17 03:55:05;;;;;;;13.95;9.35;;;;;;;-3.01;75.19;98812.16;3174238;22;20026;-74
2024/01/17 03:56:20;;;;;;;11.80;9.57;;;;;;;-2.99;75.66;98812.19;3174788;22;20261;-75
2024/01/17 03:57:34;;;;;;;16.50;11.13;;;;;;;-2.98;75.22;98801.13;3174633;22;20023;-75
2024/01/17 03:58:48;;;;;;;14.87;9.90;;;;;;;-2.98;75.30;98803.69;3175025;22;20299;-74
2024/01/17 04:00:03;;;;;;;14.70;10.10;;;;;;;-2.98;75.66;98793.47;3175520;22;20258;-75
2024/01/17 04:01:19;;;;;;;16.02;10.32;;;;;;;-2.98;75.64;98788.38;3175197;22;20288;-75
2024/01/17 04:02:32;;;;;;;11.47;9.00;;;;;;;-2.99;75.55;98784.97;3175100;22;20253;-75
2024/01/17 04:03:47;;;;;;;18.33;10.83;;;;;;;-2.98;75.35;98786.66;3174488;22;20270;-75
2024/01/17 04:05:00;;;;;;;14.10;10.87;;;;;;;-2.98;75.86;98783.25;3175034;22;20361;-75
2024/01/17 04:06:15;;;;;;;15.85;10.30;;;;;;;-2.98;75.95;98773.91;3175596;22;20344;-75
2024/01/17 04:07:28;;;;;;;18.40;11.80;;;;;;;-2.97;75.33;98770.53;3174942;22;20023;-75
2024/01/17 04:08:44;;;;;;;17.37;11.27;;;;;;;-2.97;75.79;98759.44;3175016;22;20424;-75
2024/01/17 04:09:57;;;;;;;16.17;11.40;;;;;;;-2.99;75.51;98754.34;3175793;22;20552;-75
2024/01/17 04:11:12;;;;;;;19.27;12.23;;;;;;;-2.98;75.83;98760.28;3175765;22;20313;-75
2024/01/17 04:12:25;;;;;;;14.05;11.07;;;;;;;-2.99;75.73;98756.03;3175295;22;20030;-75
2024/01/17 04:13:42;;;;;;;14.32;10.35;;;;;;;-2.99;75.39;98756.03;3175248;22;20267;-75
2024/01/17 04:14:56;;;;;;;11.73;9.87;;;;;;;-3.01;75.42;98752.59;3174213;22;20027;-75
2024/01/17 04:16:11;;;;;;;18.77;10.67;;;;;;;-3.00;75.53;98755.16;3174363;22;20566;-75
2024/01/17 04:17:25;;;;;;;15.20;11.33;;;;;;;-3.00;75.84;98749.19;3174699;22;20023;-75
2024/01/17 04:18:40;;;;;;;15.20;10.30;;;;;;;-3.01;75.63;98748.34;3174195;22;20266;-75
2024/01/17 04:19:53;;;;;;;14.17;12.57;;;;;;;-3.01;75.49;98739.84;3175836;22;20277;-75
2024/01/17 04:21:08;;;;;;;17.63;11.13;;;;;;;-3.02;76.02;98743.19;3175936;22;20578;-75
2024/01/17 04:22:21;;;;;;;14.50;10.47;;;;;;;-3.02;75.52;98730.44;3175571;22;20042;-75
2024/01/17 04:23:36;;;;;;;17.58;12.45;;;;;;;-3.02;75.96;98725.34;3175670;22;20712;-75
2024/01/17 04:24:49;;;;;;;24.17;14.80;;;;;;;-3.00;75.66;98724.53;3175345;22;20030;-75
2024/01/17 04:26:04;;;;;;;19.33;11.47;;;;;;;-3.00;75.83;98718.56;3174609;22;20321;-75
2024/01/17 04:27:18;;;;;;;16.07;12.13;;;;;;;-2.97;75.74;98721.16;3174287;22;20019;-75
2024/01/17 04:28:32;;;;;;;21.23;13.07;;;;;;;-2.96;75.95;98716.09;3174953;22;20262;-75
2024/01/17 04:29:45;;;;;;;19.17;12.47;;;;;;;-2.94;76.07;98716.13;3174695;22;20019;-75
2024/01/17 04:31:00;;;;;;;16.33;11.77;;;;;;;-2.91;76.15;98708.50;3174380;22;20250;-75
2024/01/17 04:32:14;;;;;;;17.27;12.10;;;;;;;-2.90;75.96;98713.63;3174916;22;20023;-75
2024/01/17 04:33:30;;;;;;;17.77;12.60;;;;;;;-2.87;76.07;98705.16;3174738;22;20592;-75
2024/01/17 04:34:44;;;;;;;18.43;13.33;;;;;;;-2.85;76.39;98701.78;3174396;22;20262;-75
2024/01/17 04:35:59;;;;;;;16.27;12.07;;;;;;;-2.83;76.56;98699.25;3173749;22;20261;-74
2024/01/17 04:37:13;;;;;;;19.58;13.45;;;;;;;-2.79;76.70;98692.47;3174524;22;20023;-74
2024/01/17 04:38:27;;;;;;;17.88;12.07;;;;;;;-2.80;76.65;98686.53;3174353;22;20258;-75
2024/01/17 04:39:41;;;;;;;20.20;13.73;;;;;;;-2.80;76.29;98678.00;3174452;22;20588;-74
2024/01/17 04:40:55;;;;;;;19.60;12.67;;;;;;;-2.81;76.45;98679.72;3174605;22;20026;-75
2024/01/17 04:42:09;;;;;;;18.97;13.80;;;;;;;-2.81;76.14;98674.63;3173823;22;20261;-75
2024/01/17 04:43:23;;;;;;;17.77;12.80;;;;;;;-2.83;75.96;98670.31;3173817;22;20022;-75
2024/01/17 04:44:38;;;;;;;26.40;14.90;;;;;;;-2.83;76.03;98666.06;3174477;22;20608;-75
2024/01/17 04:45:51;;;;;;;22.13;15.27;;;;;;;-2.82;76.15;98667.78;3174724;22;20520;-75
2024/01/17 04:47:06;;;;;;;20.08;12.45;;;;;;;-2.81;76.38;98668.63;3173594;22;20305;-75
2024/01/17 04:48:19;;;;;;;18.65;15.10;;;;;;;-2.80;76.57;98662.69;3174633;22;20026;-75
2024/01/17 04:49:35;;;;;;;30.80;14.13;;;;;;;-2.79;76.61;98656.75;3174342;22;20265;-75
2024/01/17 04:50:52;;;;;;;21.02;14.85;;;;;;;-2.76;76.37;98659.31;3174725;22;20099;-75
2024/01/17 04:52:06;;;;;;;21.85;15.48;;;;;;;-2.74;76.70;98655.97;3175116;22;20839;-76
2024/01/17 04:53:20;;;;;;;22.10;14.85;;;;;;;-2.73;76.43;98656.84;3174896;22;20254;-75
2024/01/17 04:54:35;;;;;;;18.67;14.55;;;;;;;-2.73;76.39;98655.13;3174125;22;20272;-75
2024/01/17 04:55:49;;;;;;;23.08;15.85;;;;;;;-2.73;76.38;98641.53;3159938;22;20026;-75
2024/01/17 04:57:03;;;;;;;18.20;14.57;;;;;;;-2.73;76.37;98641.53;3160572;22;20262;-75
2024/01/17 04:58:18;;;;;;;31.67;14.32;;;;;;;-2.74;76.61;98638.09;3159655;22;20030;-75
2024/01/17 04:59:32;;;;;;;24.35;15.57;;;;;;;-2.73;76.49;98641.53;3158904;22;20254;-75
2024/01/17 05:00:46;;;;;;;19.95;15.20;;;;;;;-2.72;76.45;98640.66;3159541;22;20261;-75
2024/01/17 05:02:00;;;;;;;21.85;14.80;;;;;;;-2.73;76.59;98636.41;3158869;22;20765;-75
2024/01/17 05:03:14;;;;;;;16.88;13.82;;;;;;;-2.74;76.33;98630.44;3158594;22;20027;-75
2024/01/17 05:04:28;;;;;;;20.65;13.88;;;;;;;-2.74;76.49;98625.31;3159115;22;20333;-75
2024/01/17 05:05:43;;;;;;;21.35;13.85;;;;;;;-2.73;76.36;98626.19;3159053;22;20019;-75
2024/01/17 05:06:58;;;;;;;18.80;16.48;;;;;;;-2.73;76.72;98621.94;3158021;22;20303;-76
2024/01/17 05:08:11;;;;;;;20.30;14.30;;;;;;;-2.70;76.63;98608.34;3158417;22;20341;-76
2024/01/17 05:09:26;;;;;;;21.63;16.75;;;;;;;-2.59;77.11;98609.31;3163985;22;20262;-76
2024/01/17 05:10:41;;;;;;;24.65;16.40;;;;;;;-2.54;77.17;98596.63;3159891;22;20015;-76
2024/01/17 05:11:56;;;;;;;20.95;16.95;;;;;;;-2.54;76.71;98600.03;3160124;22;20262;-75
2024/01/17 05:13:10;;;;;;;22.58;16.90;;;;;;;-2.53;76.84;98603.41;3159443;22;20246;-79
2024/01/17 05:14:25;;;;;;;22.63;16.95;;;;;;;-2.54;76.80;98588.94;3158799;22;20807;-78
2024/01/17 05:15:38;;;;;;;24.67;15.65;;;;;;;-2.55;76.91;98592.34;3156720;22;20019;-76
2024/01/17 05:16:52;;;;;;;22.77;14.38;;;;;;;-2.56;76.97;98591.47;3157362;22;20316;-76
2024/01/17 05:18:07;;;;;;;26.75;17.70;;;;;;;-2.55;77.21;98589.81;3157771;22;20023;-76
2024/01/17 05:19:21;;;;;;;18.55;14.75;;;;;;;-2.53;76.97;98588.09;3157307;22;20740;-76
2024/01/17 05:20:35;;;;;;;20.05;16.52;;;;;;;-2.52;76.88;98585.56;3157848;22;20254;-76
2024/01/17 05:21:50;;;;;;;18.33;15.25;;;;;;;-2.50;77.29;98588.16;3157577;22;20262;-77
2024/01/17 05:23:04;;;;;;;20.75;14.82;;;;;;;-2.49;77.55;98594.97;3157059;22;20016;-76
2024/01/17 05:24:18;;;;;;;28.98;16.63;;;;;;;-2.48;77.05;98586.44;3157801;22;20268;-77
2024/01/17 05:25:32;;;;;;;23.02;17.40;;;;;;;-2.48;77.04;98586.44;3157913;22;20462;-76
2024/01/17 05:26:47;;;;;;;26.63;19.25;;;;;;;-2.47;77.46;98577.97;3156957;22;20262;-77
2024/01/17 05:28:01;;;;;;;24.20;16.10;;;;;;;-2.47;77.25;98568.59;3157556;22;20023;-77
2024/01/17 05:29:15;;;;;;;25.33;16.67;;;;;;;-2.45;77.65;98571.19;3157645;22;20270;-77
2024/01/17 05:30:29;;;;;;;24.25;16.50;;;;;;;-2.43;77.69;98564.38;3157723;22;20023;-77
2024/01/17 05:31:43;;;;;;;21.90;17.88;;;;;;;-2.43;77.24;98565.25;3157277;22;20621;-76
2024/01/17 05:32:56;;;;;;;17.73;14.60;;;;;;;-2.38;77.41;98561.88;3157626;22;20024;-77
2024/01/17 05:34:11;;;;;;;20.38;14.88;;;;;;;-2.37;77.53;98563.59;3158027;22;20574;-77
2024/01/17 05:35:27;;;;;;;20.85;15.35;;;;;;;-2.36;77.28;98552.53;3156571;22;20070;-77
2024/01/17 05:36:43;;;;;;;22.33;15.52;;;;;;;-2.34;77.36;98553.41;3157510;22;20262;-77
2024/01/17 05:37:59;;;;;;;24.33;15.80;;;;;;;-2.34;77.35;98556.81;3157626;22;20258;-77
2024/01/17 05:39:13;;;;;;;19.30;14.38;;;;;;;-2.33;77.58;98545.72;3157012;22;20273;-77
2024/01/17 05:40:27;;;;;;;18.88;15.00;;;;;;;-2.33;77.10;98544.88;3157870;22;20924;-77
2024/01/17 05:41:41;;;;;;;23.10;14.73;;;;;;;-2.32;77.56;98550.00;3157645;22;20262;-78
2024/01/17 05:42:55;;;;;;;17.83;14.05;;;;;;;-2.30;77.57;98548.31;3157149;22;20031;-77